createdAt,value
2019-04-20T00:01:11.714Z,98.40
2019-04-20T00:03:42.359Z,98.50
2019-04-20T00:06:09.251Z,98.80
2019-04-20T00:08:40.746Z,98.80
2019-04-20T00:11:14.157Z,98.70
2019-04-20T00:13:47.687Z,98.70
2019-04-20T00:16:08.523Z,98.80
2019-04-20T00:18:43.028Z,98.80
2019-04-20T00:24:37.506Z,99.00
2019-04-20T00:27:27.139Z,99.10
2019-04-20T00:29:56.096Z,99.10
2019-04-20T00:32:14.602Z,99.10
2019-04-20T00:34:39.878Z,99.20
2019-04-20T00:37:05.835Z,99.30
2019-04-20T00:39:34.361Z,99.50
2019-04-20T00:42:07.552Z,99.50
2019-04-20T00:44:35.876Z,99.50
2019-04-20T00:47:12.061Z,99.50
2019-04-20T00:49:50.886Z,99.50
2019-04-20T00:54:36.923Z,99.60
2019-04-20T00:57:20.407Z,99.70
2019-04-20T01:00:03.623Z,99.70
2019-04-20T01:02:22.189Z,99.80
2019-04-20T01:05:02.540Z,99.80
2019-04-20T01:07:38.558Z,99.80
2019-04-20T01:10:02.849Z,99.90
2019-04-20T01:12:33.776Z,99.90
2019-04-20T01:15:04.277Z,99.90
2019-04-20T01:17:30.959Z,99.90
2019-04-20T01:19:58.530Z,99.90
2019-04-20T01:22:28.403Z,99.90
2019-04-20T01:25:00.141Z,99.90
2019-04-20T01:27:40.804Z,99.90
2019-04-20T01:30:08.338Z,99.90
2019-04-20T01:32:34.253Z,99.90
2019-04-20T01:35:04.774Z,99.90
2019-04-20T01:37:36.477Z,99.90
2019-04-20T01:39:56.808Z,99.90
2019-04-20T01:42:23.331Z,99.90
2019-04-20T01:44:53.601Z,99.90
2019-04-20T01:47:23.905Z,99.90
2019-04-20T01:49:58.570Z,99.90
2019-04-20T01:52:27.096Z,99.90
2019-04-20T01:55:17.356Z,99.90
2019-04-20T01:57:54.782Z,99.90
2019-04-20T02:00:28.439Z,99.90
2019-04-20T02:03:00.258Z,99.90
2019-04-20T02:05:29.669Z,99.90
2019-04-20T02:07:55.576Z,99.90
2019-04-20T02:10:33.234Z,99.90
2019-04-20T02:12:58.352Z,99.90
2019-04-20T02:15:30.068Z,99.90
2019-04-20T02:18:07.885Z,99.90
2019-04-20T02:20:37.542Z,99.90
2019-04-20T02:23:06.281Z,99.90
2019-04-20T02:25:20.662Z,99.90
2019-04-20T02:27:53.142Z,99.90
2019-04-20T02:33:40.127Z,99.90
2019-04-20T02:36:23.733Z,99.90
2019-04-20T02:41:39.803Z,99.90
2019-04-20T02:46:33.338Z,99.90
2019-04-20T02:49:10.255Z,99.90
2019-04-20T02:51:35.460Z,99.90
2019-04-20T02:54:16.667Z,99.90
2019-04-20T02:56:36.189Z,99.90
2019-04-20T02:59:12.653Z,99.90
2019-04-20T03:01:43.620Z,99.90
2019-04-20T03:03:55.992Z,99.90
2019-04-20T03:06:32.686Z,99.90
2019-04-20T03:09:15.270Z,99.90
2019-04-20T03:11:46.479Z,99.90
2019-04-20T03:14:03.965Z,99.90
2019-04-20T03:16:35.741Z,99.90
2019-04-20T03:19:02.529Z,99.90
2019-04-20T03:21:37.978Z,99.90
2019-04-20T03:24:12.984Z,99.90
2019-04-20T03:26:55.993Z,99.90
2019-04-20T03:30:03.659Z,99.90
2019-04-20T03:35:30.139Z,99.90
2019-04-20T03:37:45.744Z,99.90
2019-04-20T03:40:05.513Z,99.90
2019-04-20T03:42:18.294Z,99.90
2019-04-20T03:44:56.469Z,99.90
2019-04-20T03:47:30.481Z,99.90
2019-04-20T03:50:14.689Z,99.90
2019-04-20T03:52:44.974Z,99.90
2019-04-20T03:55:24.253Z,99.90
2019-04-20T03:58:10.796Z,99.90
2019-04-20T04:01:19.919Z,99.90
2019-04-20T04:03:58.762Z,99.90
2019-04-20T04:06:23.521Z,99.90
2019-04-20T04:08:55.876Z,99.90
2019-04-20T04:11:26.477Z,99.90
2019-04-20T04:13:39.724Z,99.90
2019-04-20T04:16:11.405Z,99.90
2019-04-20T04:18:41.001Z,99.90
2019-04-20T04:21:11.459Z,99.90
2019-04-20T04:23:54.250Z,99.90
2019-04-20T04:26:22.301Z,99.90
2019-04-20T04:28:47.517Z,99.90
2019-04-20T04:31:26.277Z,99.90
2019-04-20T04:36:17.759Z,99.90
2019-04-20T04:39:11.170Z,99.90
2019-04-20T04:41:36.336Z,99.90
2019-04-20T04:43:52.120Z,99.90
2019-04-20T04:46:03.888Z,99.90
2019-04-20T04:48:37.271Z,99.90
2019-04-20T04:51:08.977Z,99.90
2019-04-20T04:53:44.188Z,99.90
2019-04-20T04:56:07.372Z,99.90
2019-04-20T04:58:31.898Z,99.90
2019-04-20T05:01:09.776Z,99.90
2019-04-20T05:03:44.720Z,99.90
2019-04-20T05:06:23.149Z,99.90
2019-04-20T05:08:45.292Z,99.90
2019-04-20T05:11:08.881Z,99.90
2019-04-20T05:13:44.736Z,99.90
2019-04-20T05:16:19.443Z,99.90
2019-04-20T05:18:57.896Z,99.90
2019-04-20T05:21:34.141Z,99.90
2019-04-20T05:24:03.250Z,99.90
2019-04-20T05:26:44.591Z,99.90
2019-04-20T05:29:04.627Z,99.90
2019-04-20T05:31:31.004Z,99.90
2019-04-20T05:34:15.779Z,99.90
2019-04-20T05:37:03.682Z,99.90
2019-04-20T05:39:53.227Z,99.90
2019-04-20T05:42:03.377Z,99.90
2019-04-20T05:44:42.783Z,99.90
2019-04-20T05:47:11.038Z,99.90
2019-04-20T05:49:34.816Z,99.70
2019-04-20T05:52:25.387Z,99.30
2019-04-20T05:54:39.069Z,99.90
2019-04-20T05:57:14.991Z,98.30
2019-04-20T05:59:59.433Z,98.30
2019-04-20T06:02:26.273Z,97.10
2019-04-20T06:05:03.218Z,96.30
2019-04-20T06:07:26.807Z,96.40
2019-04-20T06:09:58.044Z,96.10
2019-04-20T06:12:19.822Z,95.50
2019-04-20T06:15:04.519Z,95.00
2019-04-20T06:17:55.372Z,94.30
2019-04-20T06:20:31.064Z,92.80
2019-04-20T06:23:10.066Z,91.90
2019-04-20T06:25:50.242Z,90.30
2019-04-20T06:28:01.963Z,87.00
2019-04-20T06:30:31.009Z,83.30
2019-04-20T06:34:30.273Z,79.60
2019-04-20T06:36:49.658Z,76.10
2019-04-20T06:39:24.393Z,77.00
2019-04-20T06:44:36.925Z,70.30
2019-04-20T06:46:59.148Z,67.10
2019-04-20T06:52:15.428Z,64.10
2019-04-20T06:55:05.261Z,63.20
2019-04-20T06:57:43.148Z,59.20
2019-04-20T07:00:12.139Z,57.40
2019-04-20T07:02:43.076Z,56.20
2019-04-20T07:05:15.319Z,55.30
2019-04-20T07:07:43.396Z,53.70
2019-04-20T07:10:14.713Z,52.40
2019-04-20T07:12:36.937Z,50.80
2019-04-20T07:14:58.845Z,51.70
2019-04-20T07:17:55.016Z,49.50
2019-04-20T07:20:53.991Z,50.90
2019-04-20T07:25:58.542Z,47.30
2019-04-20T07:28:26.562Z,45.60
2019-04-20T07:30:58.234Z,45.00
2019-04-20T07:33:30.074Z,43.10
2019-04-20T07:35:52.447Z,42.30
2019-04-20T07:41:29.601Z,40.90
2019-04-20T07:43:58.982Z,39.70
2019-04-20T07:46:35.293Z,40.10
2019-04-20T07:48:50.640Z,38.30
2019-04-20T07:51:10.312Z,38.80
2019-04-20T07:53:40.358Z,38.60
2019-04-20T07:56:25.148Z,37.10
2019-04-20T07:58:41.108Z,36.70
2019-04-20T08:01:45.438Z,36.00
2019-04-20T08:04:09.295Z,36.30
2019-04-20T08:06:28.837Z,35.70
2019-04-20T08:09:08.684Z,35.70
2019-04-20T08:11:50.445Z,35.40
2019-04-20T08:14:18.126Z,34.10
2019-04-20T08:19:45.684Z,32.40
2019-04-20T08:22:19.920Z,31.90
2019-04-20T08:24:42.826Z,30.20
2019-04-20T08:27:13.160Z,30.10
2019-04-20T08:33:04.236Z,28.90
2019-04-20T08:35:47.428Z,27.60
2019-04-20T08:38:37.110Z,27.30
2019-04-20T08:40:43.477Z,27.10
2019-04-20T08:45:46.589Z,25.90
2019-04-20T08:48:18.980Z,26.00
2019-04-20T08:50:48.539Z,25.80
2019-04-20T08:53:23.144Z,24.30
2019-04-20T08:58:59.727Z,24.30
2019-04-20T09:05:27.458Z,23.00
2019-04-20T09:08:14.393Z,22.40
2019-04-20T09:11:47.988Z,22.60
2019-04-20T09:14:35.188Z,22.80
2019-04-20T09:17:39.839Z,22.40
2019-04-20T09:21:27.347Z,22.10
2019-04-20T09:25:54.534Z,21.30
2019-04-20T09:32:26.305Z,20.50
2019-04-20T09:35:00.045Z,20.40
2019-04-20T09:37:35.792Z,20.50
2019-04-20T09:40:21.623Z,19.80
2019-04-20T09:42:38.521Z,19.80
2019-04-20T09:45:13.097Z,19.90
2019-04-20T09:47:43.310Z,19.90
2019-04-20T09:50:22.310Z,20.40
2019-04-20T09:52:51.387Z,19.80
2019-04-20T09:55:22.068Z,19.60
2019-04-20T09:57:54.220Z,19.40
2019-04-20T10:00:26.965Z,19.00
2019-04-20T10:02:39.910Z,19.40
2019-04-20T10:05:09.928Z,18.70
2019-04-20T10:07:39.271Z,18.70
2019-04-20T10:10:18.785Z,18.70
2019-04-20T10:12:37.632Z,19.00
2019-04-20T10:15:12.188Z,19.30
2019-04-20T10:17:36.657Z,19.30
2019-04-20T10:20:11.519Z,18.90
2019-04-20T10:22:36.090Z,18.50
2019-04-20T10:25:04.597Z,18.40
2019-04-20T10:27:32.749Z,18.70
2019-04-20T10:30:02.757Z,18.30
2019-04-20T10:32:37.754Z,18.10
2019-04-20T10:35:04.418Z,18.40
2019-04-20T10:37:37.781Z,18.10
2019-04-20T10:40:06.743Z,18.70
2019-04-20T10:42:34.696Z,18.50
2019-04-20T10:45:04.156Z,18.50
2019-04-20T10:47:33.303Z,17.80
2019-04-20T10:50:00.982Z,18.30
2019-04-20T10:52:29.872Z,18.40
2019-04-20T10:55:00.550Z,18.10
2019-04-20T10:57:28.312Z,17.90
2019-04-20T10:59:55.845Z,17.60
2019-04-20T11:02:23.652Z,18.10
2019-04-20T11:04:54.947Z,17.50
2019-04-20T11:07:26.373Z,17.90
2019-04-20T11:10:07.964Z,18.10
2019-04-20T11:12:28.342Z,18.10
2019-04-20T11:14:58.655Z,18.10
2019-04-20T11:17:29.771Z,18.00
2019-04-20T11:19:57.215Z,18.00
2019-04-20T11:22:26.247Z,18.20
2019-04-20T11:24:54.343Z,18.30
2019-04-20T11:27:22.566Z,18.00
2019-04-20T11:29:51.984Z,17.70
2019-04-20T11:32:22.233Z,18.10
2019-04-20T11:34:51.274Z,18.00
2019-04-20T11:37:19.446Z,17.70
2019-04-20T11:39:47.415Z,17.40
2019-04-20T11:42:14.855Z,17.70
2019-04-20T11:44:42.510Z,17.80
2019-04-20T11:47:10.598Z,17.50
2019-04-20T11:49:39.690Z,17.30
2019-04-20T11:52:09.960Z,17.90
2019-04-20T11:54:38.475Z,18.00
2019-04-20T11:57:07.086Z,17.70
2019-04-20T11:59:34.984Z,17.70
2019-04-20T12:02:20.126Z,17.80
2019-04-20T12:05:05.946Z,17.80
2019-04-20T12:07:19.229Z,17.20
2019-04-20T12:09:47.293Z,17.00
2019-04-20T12:12:29.310Z,17.40
2019-04-20T12:14:44.532Z,17.40
2019-04-20T12:17:13.365Z,17.30
2019-04-20T12:19:41.931Z,17.10
2019-04-20T12:22:09.743Z,17.40
2019-04-20T12:24:38.189Z,17.40
2019-04-20T12:27:07.009Z,17.40
2019-04-20T12:29:34.771Z,17.40
2019-04-20T12:32:05.477Z,17.60
2019-04-20T12:34:32.298Z,17.50
2019-04-20T12:37:00.880Z,18.10
2019-04-20T12:39:29.034Z,17.60
2019-04-20T12:41:58.851Z,17.60
2019-04-20T12:44:25.863Z,17.90
2019-04-20T12:46:53.930Z,17.80
2019-04-20T12:49:21.670Z,18.50
2019-04-20T12:51:57.085Z,18.10
2019-04-20T12:54:22.693Z,18.10
2019-04-20T12:56:52.985Z,18.30
2019-04-20T12:59:23.342Z,18.50
2019-04-20T13:01:51.408Z,19.10
2019-04-20T13:04:20.532Z,19.10
2019-04-20T13:06:49.307Z,18.60
2019-04-20T13:09:18.910Z,18.30
2019-04-20T13:11:59.061Z,18.80
2019-04-20T13:15:24.583Z,19.00
2019-04-20T13:17:54.237Z,19.70
2019-04-20T13:20:21.921Z,20.30
2019-04-20T13:22:50.799Z,20.90
2019-04-20T13:25:19.062Z,21.30
2019-04-20T13:27:47.263Z,22.30
2019-04-20T13:30:15.460Z,22.00
2019-04-20T13:32:45.716Z,22.10
2019-04-20T13:35:14.106Z,23.10
2019-04-20T13:37:42.359Z,22.40
2019-04-20T13:40:12.696Z,22.10
2019-04-20T13:42:41.501Z,22.20
2019-04-20T13:45:10.890Z,22.20
2019-04-20T13:47:39.033Z,22.70
2019-04-20T13:50:07.228Z,22.40
2019-04-20T13:52:35.065Z,23.40
2019-04-20T13:55:03.272Z,23.00
2019-04-20T13:57:38.069Z,22.80
2019-04-20T14:00:26.207Z,22.40
2019-04-20T14:03:00.664Z,22.50
2019-04-20T14:05:33.087Z,23.10
2019-04-20T14:08:05.326Z,23.20
2019-04-20T14:10:33.415Z,24.00
2019-04-20T14:13:08.205Z,24.50
2019-04-20T14:15:31.195Z,23.90
2019-04-20T14:17:59.364Z,24.80
2019-04-20T14:20:27.196Z,24.60
2019-04-20T14:22:54.939Z,23.30
2019-04-20T14:25:22.948Z,23.10
2019-04-20T14:27:50.857Z,23.60
2019-04-20T14:30:19.283Z,23.80
2019-04-20T14:32:48.169Z,24.50
2019-04-20T14:35:16.741Z,23.70
2019-04-20T14:37:45.958Z,22.70
2019-04-20T14:40:14.556Z,22.40
2019-04-20T14:42:47.723Z,22.80
2019-04-20T14:45:12.658Z,23.70
2019-04-20T14:47:39.995Z,23.80
2019-04-20T14:50:09.791Z,23.60
2019-04-20T14:52:37.694Z,24.90
2019-04-20T14:55:06.090Z,24.30
2019-04-20T14:57:35.056Z,24.80
2019-04-20T15:00:22.065Z,25.40
2019-04-20T15:02:50.406Z,25.30
2019-04-20T15:05:19.156Z,25.50
2019-04-20T15:07:46.965Z,25.50
2019-04-20T15:10:16.162Z,25.60
2019-04-20T15:12:49.937Z,25.70
2019-04-20T15:15:14.654Z,25.50
2019-04-20T15:17:47.865Z,24.90
2019-04-20T15:20:35.234Z,25.70
2019-04-20T15:23:13.635Z,25.50
2019-04-20T15:25:42.230Z,26.00
2019-04-20T15:28:10.454Z,26.80
2019-04-20T15:30:38.376Z,26.80
2019-04-20T15:33:07.171Z,26.60
2019-04-20T15:35:34.807Z,26.60
2019-04-20T15:38:02.900Z,26.40
2019-04-20T15:40:31.054Z,26.80
2019-04-20T15:43:06.738Z,26.90
2019-04-20T15:45:29.449Z,26.60
2019-04-20T15:47:58.115Z,26.60
2019-04-20T15:50:27.704Z,26.70
2019-04-20T15:52:57.385Z,27.00
2019-04-20T15:55:31.067Z,27.40
2019-04-20T15:57:55.586Z,27.30
2019-04-20T16:00:24.615Z,27.00
2019-04-20T16:03:07.431Z,27.60
2019-04-20T16:05:47.194Z,27.90
2019-04-20T16:08:23.673Z,28.10
2019-04-20T16:10:51.383Z,28.40
2019-04-20T16:13:26.018Z,28.40
2019-04-20T16:15:49.770Z,28.80
2019-04-20T16:18:18.805Z,28.70
2019-04-20T16:20:56.547Z,28.50
2019-04-20T16:23:16.592Z,29.00
2019-04-20T16:25:53.353Z,29.00
2019-04-20T16:28:21.712Z,29.40
2019-04-20T16:30:51.628Z,29.30
2019-04-20T16:33:20.676Z,29.10
2019-04-20T16:35:48.433Z,29.00
2019-04-20T16:38:16.228Z,29.00
2019-04-20T16:40:44.335Z,28.60
2019-04-20T16:43:22.141Z,29.00
2019-04-20T16:45:41.724Z,29.10
2019-04-20T16:48:10.372Z,29.80
2019-04-20T16:50:38.189Z,29.30
2019-04-20T16:53:06.638Z,29.70
2019-04-20T16:55:34.855Z,29.60
2019-04-20T16:58:03.750Z,29.40
2019-04-20T17:00:33.441Z,29.30
2019-04-20T17:03:02.580Z,28.90
2019-04-20T17:05:31.524Z,29.00
2019-04-20T17:08:00.711Z,29.00
2019-04-20T17:10:28.970Z,29.40
2019-04-20T17:12:57.755Z,29.70
2019-04-20T17:15:25.633Z,29.70
2019-04-20T17:17:55.434Z,29.90
2019-04-20T17:20:25.286Z,30.20
2019-04-20T17:22:54.306Z,30.40
2019-04-20T17:25:22.026Z,30.90
2019-04-20T17:28:04.800Z,31.10
2019-04-20T17:30:59.010Z,31.40
2019-04-20T17:33:47.440Z,32.10
2019-04-20T17:36:12.410Z,32.30
2019-04-20T17:38:41.790Z,33.10
2019-04-20T17:41:29.265Z,33.00
2019-04-20T17:43:56.709Z,33.00
2019-04-20T17:46:17.403Z,33.20
2019-04-20T17:48:45.286Z,33.90
2019-04-20T17:51:28.725Z,33.80
2019-04-20T17:54:05.337Z,34.40
2019-04-20T17:56:31.003Z,34.20
2019-04-20T17:58:58.613Z,34.80
2019-04-20T18:02:09.056Z,35.40
2019-04-20T18:04:57.494Z,35.80
2019-04-20T18:07:24.990Z,36.10
2019-04-20T18:09:53.418Z,36.40
2019-04-20T18:12:01.937Z,36.40
2019-04-20T18:14:43.091Z,37.90
2019-04-20T18:17:21.996Z,37.30
2019-04-20T18:19:46.893Z,37.60
2019-04-20T18:22:16.039Z,38.30
2019-04-20T18:25:07.597Z,38.40
2019-04-20T18:27:31.729Z,38.60
2019-04-20T18:30:01.361Z,38.70
2019-04-20T18:32:31.905Z,39.40
2019-04-20T18:35:07.884Z,39.10
2019-04-20T18:37:34.442Z,39.90
2019-04-20T18:40:09.161Z,40.30
2019-04-20T18:42:39.884Z,39.70
2019-04-20T18:45:21.888Z,40.00
2019-04-20T18:47:49.653Z,39.80
2019-04-20T18:50:10.749Z,40.00
2019-04-20T18:52:35.678Z,41.20
2019-04-20T18:55:07.450Z,40.50
2019-04-20T18:57:34.944Z,40.40
2019-04-20T19:00:07.813Z,40.80
2019-04-20T19:02:42.963Z,41.20
2019-04-20T19:05:09.497Z,41.60
2019-04-20T19:07:41.411Z,42.10
2019-04-20T19:10:16.405Z,42.80
2019-04-20T19:12:47.785Z,43.60
2019-04-20T19:15:46.912Z,44.00
2019-04-20T19:18:31.637Z,44.60
2019-04-20T19:20:53.056Z,44.90
2019-04-20T19:23:20.935Z,45.70
2019-04-20T19:25:49.868Z,46.70
2019-04-20T19:28:23.085Z,47.70
2019-04-20T19:31:02.874Z,48.00
2019-04-20T19:33:33.061Z,48.10
2019-04-20T19:35:56.340Z,48.80
2019-04-20T19:38:25.760Z,49.70
2019-04-20T19:40:59.417Z,49.90
2019-04-20T19:43:28.818Z,50.20
2019-04-20T19:46:29.736Z,50.00
2019-04-20T19:48:32.673Z,50.80
2019-04-20T19:51:12.949Z,51.20
2019-04-20T19:53:36.582Z,51.30
2019-04-20T19:56:03.549Z,52.20
2019-04-20T19:58:30.287Z,52.50
2019-04-20T20:00:53.416Z,52.90
2019-04-20T20:03:19.782Z,53.40
2019-04-20T20:05:50.901Z,54.40
2019-04-20T20:08:23.641Z,55.20
2019-04-20T20:10:48.450Z,55.70
2019-04-20T20:13:16.286Z,56.30
2019-04-20T20:15:45.513Z,56.30
2019-04-20T20:18:31.009Z,57.00
2019-04-20T20:21:04.005Z,57.60
2019-04-20T20:23:16.068Z,58.40
2019-04-20T20:25:47.847Z,57.70
2019-04-20T20:28:27.105Z,58.10
2019-04-20T20:30:58.190Z,58.50
2019-04-20T20:33:37.881Z,58.80
2019-04-20T20:35:53.732Z,59.60
2019-04-20T20:38:23.093Z,60.50
2019-04-20T20:40:55.204Z,61.30
2019-04-20T20:43:22.777Z,61.40
2019-04-20T20:45:55.407Z,61.50
2019-04-20T20:48:24.431Z,61.20
2019-04-20T20:50:57.371Z,60.70
2019-04-20T20:53:21.837Z,60.70
2019-04-20T20:55:46.466Z,61.40
2019-04-20T20:58:18.315Z,61.40
2019-04-20T21:00:53.914Z,61.40
2019-04-20T21:03:22.131Z,62.00
2019-04-20T21:05:42.428Z,63.40
2019-04-20T21:08:11.105Z,65.40
2019-04-20T21:10:42.091Z,68.80
2019-04-20T21:13:10.961Z,68.40
2019-04-20T21:15:38.396Z,69.60
2019-04-20T21:18:31.293Z,69.50
2019-04-20T21:20:53.686Z,71.20
2019-04-20T21:23:20.040Z,70.60
2019-04-20T21:25:45.294Z,71.10
2019-04-20T21:28:08.950Z,71.40
2019-04-20T21:30:42.810Z,71.70
2019-04-20T21:33:07.846Z,71.70
2019-04-20T21:35:38.134Z,72.00
2019-04-20T21:38:08.490Z,73.00
2019-04-20T21:40:39.493Z,73.00
2019-04-20T21:43:07.288Z,73.20
2019-04-20T21:45:37.233Z,73.40
2019-04-20T21:48:12.009Z,73.70
2019-04-20T21:50:54.615Z,74.70
2019-04-20T21:53:10.605Z,76.10
2019-04-20T21:55:34.187Z,75.50
2019-04-20T21:58:03.589Z,76.20
2019-04-20T22:00:56.040Z,75.90
2019-04-20T22:03:22.685Z,76.60
2019-04-20T22:06:00.172Z,77.50
2019-04-20T22:08:28.426Z,78.20
2019-04-20T22:10:55.783Z,79.30
2019-04-20T22:13:29.283Z,79.90
2019-04-20T22:15:58.563Z,80.20
2019-04-20T22:18:24.000Z,83.90
2019-04-20T22:21:03.577Z,83.60
2019-04-20T22:23:36.553Z,83.10
2019-04-20T22:26:03.845Z,84.80
2019-04-20T22:28:22.276Z,84.70
2019-04-20T22:30:50.387Z,84.90
2019-04-20T22:33:27.034Z,85.90
2019-04-20T22:35:55.567Z,86.10
2019-04-20T22:38:28.810Z,86.40
2019-04-20T22:41:05.629Z,87.20
2019-04-20T22:43:31.394Z,87.70
2019-04-20T22:45:57.146Z,88.50
2019-04-20T22:48:25.110Z,90.10
2019-04-20T22:51:14.160Z,90.10
2019-04-20T22:53:35.583Z,90.50
2019-04-20T22:56:14.777Z,90.90
2019-04-20T22:58:34.769Z,91.00
2019-04-20T23:00:56.168Z,91.10
2019-04-20T23:03:20.857Z,91.20
2019-04-20T23:05:49.002Z,91.20
2019-04-20T23:08:17.018Z,91.40
2019-04-20T23:10:47.717Z,91.70
2019-04-20T23:13:13.834Z,91.90
2019-04-20T23:15:42.432Z,92.10
2019-04-20T23:18:11.955Z,92.30
2019-04-20T23:20:41.121Z,92.40
2019-04-20T23:23:11.008Z,92.60
2019-04-20T23:25:38.989Z,92.80
2019-04-20T23:28:11.354Z,92.80
2019-04-20T23:30:39.330Z,92.90
2019-04-20T23:33:05.879Z,92.90
2019-04-20T23:35:37.609Z,92.90
2019-04-20T23:38:11.212Z,92.90
2019-04-20T23:40:32.403Z,92.80
2019-04-20T23:43:07.786Z,92.90
2019-04-20T23:45:56.852Z,93.00
2019-04-20T23:48:38.958Z,93.20
2019-04-20T23:51:29.944Z,93.70
2019-04-20T23:53:48.230Z,93.90
2019-04-20T23:56:03.743Z,94.30
2019-04-20T23:58:38.210Z,94.30
